Time;durP1;ratioP1;P1;durP2;ratioP2;P2;SDS_P1;SDS_P2;PMS_P1;PMS_P2;Temp;Humidity;BMP_temperature;BMP_pressure;BME280_temperature;BME280_humidity;BME280_pressure;Samples;Min_cycle;Max_cycle;Signal;HPM_P1;HPM_P2
2023/11/13 00:00:58;;;;;;;8.20;6.17;;;11.30;99.90;;;;;;4961316;28;20550;-87
2023/11/13 00:03:24;;;;;;;11.17;6.60;;;11.20;99.90;;;;;;4958666;28;20189;-86
2023/11/13 00:05:51;;;;;;;8.23;5.90;;;11.00;99.90;;;;;;4959778;28;20212;-86
2023/11/13 00:08:17;;;;;;;9.43;6.23;;;10.90;99.90;;;;;;4958803;28;20591;-86
2023/11/13 00:10:43;;;;;;;16.43;6.87;;;10.80;99.90;;;;;;4959336;28;20694;-87
2023/11/13 00:13:10;;;;;;;7.77;5.90;;;10.70;99.90;;;;;;4961945;28;20551;-87
2023/11/13 00:15:35;;;;;;;11.17;6.50;;;10.70;99.90;;;;;;4970011;28;20208;-87
2023/11/13 00:18:02;;;;;;;9.57;5.83;;;10.80;99.90;;;;;;4959475;28;20248;-86
2023/11/13 00:20:29;;;;;;;8.77;6.17;;;10.70;99.90;;;;;;4959681;28;20230;-87
2023/11/13 00:22:55;;;;;;;9.63;6.20;;;10.70;99.90;;;;;;4959286;28;20220;-88
2023/11/13 00:25:21;;;;;;;9.80;6.97;;;10.70;99.90;;;;;;4959700;28;20207;-87
2023/11/13 00:27:46;;;;;;;8.97;6.27;;;10.60;99.90;;;;;;4957781;28;20235;-87
2023/11/13 00:30:13;;;;;;;9.03;6.00;;;10.60;99.90;;;;;;4942720;28;20192;-87
2023/11/13 00:32:39;;;;;;;9.67;6.57;;;10.70;99.90;;;;;;4958273;28;20227;-87
2023/11/13 00:35:05;;;;;;;10.27;6.47;;;10.60;99.90;;;;;;4958892;28;20183;-87
2023/11/13 00:37:31;;;;;;;8.57;6.00;;;10.60;99.90;;;;;;4959932;28;20259;-87
2023/11/13 00:39:57;;;;;;;8.40;5.73;;;10.70;99.90;;;;;;4958925;28;20530;-88
2023/11/13 00:42:22;;;;;;;8.83;6.57;;;10.50;99.90;;;;;;4958851;28;20176;-86
2023/11/13 00:44:48;;;;;;;9.00;6.50;;;10.60;99.90;;;;;;4960185;28;20692;-88
2023/11/13 00:47:14;;;;;;;8.13;5.93;;;10.50;99.90;;;;;;4959221;28;20191;-88
2023/11/13 00:49:39;;;;;;;9.07;5.83;;;10.40;99.90;;;;;;4960430;28;20654;-86
2023/11/13 00:52:05;;;;;;;8.43;6.70;;;10.40;99.90;;;;;;4961857;28;20243;-86
2023/11/13 00:54:31;;;;;;;9.90;6.43;;;10.40;99.90;;;;;;4973257;28;20200;-86
2023/11/13 00:56:57;;;;;;;7.40;5.67;;;10.40;99.90;;;;;;4963849;28;20616;-87
2023/11/13 00:59:23;;;;;;;6.90;6.20;;;10.40;99.90;;;;;;4966455;28;20187;-87
2023/11/13 01:01:49;;;;;;;9.57;6.30;;;10.40;99.90;;;;;;4961831;28;20183;-87
2023/11/13 01:04:15;;;;;;;7.90;6.00;;;10.50;99.90;;;;;;4963438;28;20178;-88
2023/11/13 01:06:41;;;;;;;6.90;6.20;;;10.50;99.90;;;;;;4975017;28;20197;-87
2023/11/13 01:09:07;;;;;;;7.93;5.87;;;10.50;99.90;;;;;;4984360;28;20363;-87
2023/11/13 01:11:33;;;;;;;7.03;6.03;;;10.40;99.90;;;;;;4984726;28;20218;-87
2023/11/13 01:14:00;;;;;;;9.83;6.20;;;10.40;99.90;;;;;;4983308;28;20177;-87
2023/11/13 01:16:29;;;;;;;8.73;6.90;;;10.40;99.90;;;;;;4980745;28;20297;-87
2023/11/13 01:18:55;;;;;;;8.27;6.50;;;10.50;99.90;;;;;;4967509;28;20550;-87
2023/11/13 01:21:24;;;;;;;6.90;6.03;;;10.50;99.90;;;;;;4965248;28;20284;-87
2023/11/13 01:23:49;;;;;;;8.33;6.60;;;10.50;99.90;;;;;;4963094;28;20311;-87
2023/11/13 01:26:15;;;;;;;10.70;6.73;;;10.50;99.90;;;;;;4966559;28;20588;-85
2023/11/13 01:28:42;;;;;;;11.17;7.00;;;10.50;99.90;;;;;;4983815;28;20217;-87
2023/11/13 01:31:09;;;;;;;10.77;7.00;;;10.50;99.90;;;;;;4966342;28;20239;-88
2023/11/13 01:33:37;;;;;;;9.80;7.53;;;10.60;99.90;;;;;;4977577;28;20195;-85
2023/11/13 01:36:03;;;;;;;10.47;7.40;;;10.60;99.90;;;;;;4982522;28;20211;-88
2023/11/13 01:38:28;;;;;;;11.60;7.67;;;10.70;99.90;;;;;;4976573;28;20187;-88
2023/11/13 01:41:05;;;;;;;10.20;8.30;;;10.70;99.90;;;;;;4970848;28;20183;-89
2023/11/13 01:43:32;;;;;;;9.20;7.87;;;10.60;99.90;;;;;;4967895;28;20203;-87
2023/11/13 01:45:58;;;;;;;11.90;8.27;;;10.70;99.90;;;;;;4973767;28;20193;-87
2023/11/13 01:48:25;;;;;;;10.70;8.30;;;10.70;99.90;;;;;;4973281;28;20179;-88
2023/11/13 01:50:52;;;;;;;12.37;8.97;;;10.60;99.90;;;;;;4972574;28;20255;-88
2023/11/13 01:53:23;;;;;;;11.73;9.27;;;10.70;99.90;;;;;;4974705;28;20188;-88
2023/11/13 01:55:51;;;;;;;12.37;9.30;;;10.80;99.90;;;;;;4981154;28;20192;-88
2023/11/13 01:58:18;;;;;;;11.70;9.07;;;10.70;99.90;;;;;;4970867;28;20349;-88
2023/11/13 02:00:46;;;;;;;11.03;9.27;;;10.90;99.90;;;;;;4972323;28;20205;-88
2023/11/13 02:03:14;;;;;;;11.30;9.17;;;10.80;99.90;;;;;;4971789;28;20255;-87
2023/11/13 02:05:40;;;;;;;11.63;8.77;;;10.80;99.90;;;;;;4963155;28;20596;-87
2023/11/13 02:08:06;;;;;;;11.40;8.60;;;10.90;99.90;;;;;;4961050;28;20287;-88
2023/11/13 02:10:31;;;;;;;10.00;8.80;;;10.90;99.90;;;;;;4961079;28;20237;-87
2023/11/13 02:12:57;;;;;;;11.63;8.77;;;11.00;99.90;;;;;;4960007;28;20228;-87
2023/11/13 02:15:23;;;;;;;12.93;9.03;;;11.00;99.90;;;;;;4960261;28;20206;-88
2023/11/13 02:18:00;;;;;;;11.93;9.50;;;11.10;99.90;;;;;;4961608;28;20223;-86
2023/11/13 02:20:26;;;;;;;13.17;9.70;;;11.30;99.90;;;;;;4960551;28;20629;-86
2023/11/13 02:22:52;;;;;;;12.73;9.70;;;11.30;99.90;;;;;;4959479;28;20252;-88
2023/11/13 02:25:22;;;;;;;14.17;9.70;;;11.20;99.90;;;;;;4960200;28;20675;-87
2023/11/13 02:28:00;;;;;;;19.33;10.63;;;11.40;99.90;;;;;;4959483;28;20676;-88
2023/11/13 02:30:26;;;;;;;14.30;10.47;;;11.40;99.90;;;;;;4959783;28;20180;-87
2023/11/13 02:32:52;;;;;;;15.90;11.13;;;11.60;99.90;;;;;;4959896;28;20224;-87
2023/11/13 02:35:19;;;;;;;17.77;10.63;;;11.60;99.90;;;;;;4960292;28;20185;-87
2023/11/13 02:37:45;;;;;;;18.93;11.20;;;11.60;99.90;;;;;;4960362;28;20221;-87
2023/11/13 02:40:11;;;;;;;20.37;9.97;;;11.40;99.90;;;;;;4960172;28;20193;-87
2023/11/13 02:42:41;;;;;;;16.40;9.40;;;11.40;99.90;;;;;;4960723;28;20194;-87
2023/11/13 02:45:08;;;;;;;19.77;10.30;;;11.50;99.90;;;;;;4960487;28;20328;-88
2023/11/13 02:47:34;;;;;;;22.77;9.60;;;11.50;99.90;;;;;;4961168;28;20187;-88
2023/11/13 02:50:00;;;;;;;20.70;9.23;;;11.50;99.90;;;;;;4963214;28;20679;-87
2023/11/13 02:52:26;;;;;;;21.37;9.50;;;11.50;99.90;;;;;;4967573;28;20251;-87
2023/11/13 02:54:52;;;;;;;23.80;10.40;;;11.50;99.90;;;;;;4962845;28;20521;-87
2023/11/13 02:57:19;;;;;;;16.47;8.63;;;11.40;99.90;;;;;;4944210;28;20188;-87
2023/11/13 02:59:45;;;;;;;23.33;9.17;;;11.40;99.90;;;;;;4959450;28;20191;-86
2023/11/13 03:02:11;;;;;;;19.30;8.60;;;11.40;99.90;;;;;;4974655;28;20164;-86
2023/11/13 03:04:36;;;;;;;18.83;8.60;;;11.60;99.90;;;;;;4960574;28;20272;-87
2023/11/13 03:07:02;;;;;;;23.67;8.57;;;11.60;99.90;;;;;;4959398;28;20269;-86
2023/11/13 03:09:28;;;;;;;18.70;8.30;;;11.60;99.90;;;;;;4960184;28;20186;-88
2023/11/13 03:11:53;;;;;;;20.00;7.97;;;11.60;99.90;;;;;;4959848;28;20216;-87
2023/11/13 03:14:19;;;;;;;27.37;8.43;;;11.70;99.90;;;;;;4959875;28;20184;-88
2023/11/13 03:16:45;;;;;;;21.60;7.23;;;11.70;99.90;;;;;;4960616;28;20203;-89
2023/11/13 03:19:11;;;;;;;19.87;7.00;;;11.90;99.90;;;;;;4961106;28;20182;-88
2023/11/13 03:21:36;;;;;;;20.63;7.00;;;11.70;99.90;;;;;;4963569;28;20172;-88
2023/11/13 03:24:02;;;;;;;25.13;7.30;;;11.70;99.90;;;;;;4962421;28;20675;-88
2023/11/13 03:26:29;;;;;;;17.90;7.23;;;11.70;99.90;;;;;;4964697;28;20202;-86
2023/11/13 03:28:56;;;;;;;27.60;7.60;;;11.80;99.90;;;;;;4962858;28;20188;-87
2023/11/13 03:31:22;;;;;;;26.27;7.73;;;11.90;99.90;;;;;;4975924;28;20231;-87
2023/11/13 03:33:48;;;;;;;21.83;7.90;;;11.80;99.90;;;;;;4961344;28;20186;-87
2023/11/13 03:36:20;;;;;;;25.47;7.40;;;11.70;99.90;;;;;;4961063;28;20187;-87
2023/11/13 03:38:46;;;;;;;20.67;6.00;;;11.70;99.90;;;;;;4961573;28;20198;-87
2023/11/13 03:41:12;;;;;;;23.00;7.53;;;11.80;99.90;;;;;;4947847;28;20195;-86
2023/11/13 03:43:38;;;;;;;19.07;6.17;;;11.90;99.90;;;;;;4963696;28;20669;-87
2023/11/13 03:46:04;;;;;;;28.17;7.13;;;11.70;99.90;;;;;;4973329;28;20223;-85
2023/11/13 03:48:30;;;;;;;21.00;6.87;;;11.70;99.90;;;;;;4968620;28;20174;-87
2023/11/13 03:50:55;;;;;;;20.17;7.20;;;11.90;99.90;;;;;;4982320;28;20174;-87
2023/11/13 03:53:21;;;;;;;19.67;6.27;;;12.00;99.90;;;;;;4979437;28;20199;-87
2023/11/13 03:55:47;;;;;;;19.73;5.80;;;11.90;99.90;;;;;;4980815;28;20192;-87
2023/11/13 03:58:13;;;;;;;19.43;6.10;;;11.90;99.90;;;;;;4980714;28;20191;-87
2023/11/13 04:00:38;;;;;;;24.53;6.37;;;11.90;99.90;;;;;;4974024;28;20183;-87
2023/11/13 04:03:04;;;;;;;22.53;5.87;;;11.90;99.90;;;;;;4981455;28;20206;-87
2023/11/13 04:05:33;;;;;;;20.30;5.23;;;11.90;99.90;;;;;;4982785;28;20205;-87
2023/11/13 04:08:02;;;;;;;19.57;5.47;;;11.90;99.90;;;;;;4980946;28;20195;-88
2023/11/13 04:10:28;;;;;;;18.97;5.87;;;12.00;99.90;;;;;;4982697;28;20199;-88
2023/11/13 04:12:54;;;;;;;20.93;6.57;;;11.90;99.90;;;;;;4962240;28;20232;-88
2023/11/13 04:15:26;;;;;;;23.33;5.23;;;11.90;99.90;;;;;;4959737;28;20551;-88
2023/11/13 04:17:52;;;;;;;22.90;5.70;;;11.90;99.90;;;;;;4975860;28;20208;-87
2023/11/13 04:20:21;;;;;;;18.43;5.73;;;12.10;99.90;;;;;;4958848;28;20639;-89
2023/11/13 04:22:48;;;;;;;22.00;5.73;;;12.00;99.90;;;;;;4960143;28;20176;-88
2023/11/13 04:25:14;;;;;;;28.10;6.40;;;12.00;99.90;;;;;;4961177;28;20211;-87
2023/11/13 04:27:40;;;;;;;22.33;6.50;;;12.00;99.90;;;;;;4962392;28;20547;-86
2023/11/13 04:30:07;;;;;;;17.87;5.00;;;12.00;99.90;;;;;;4959578;28;20179;-87
2023/11/13 04:32:33;;;;;;;18.60;5.40;;;12.00;99.90;;;;;;4959688;28;20251;-87
2023/11/13 04:34:59;;;;;;;16.07;5.27;;;12.10;99.90;;;;;;4963903;28;20185;-85
2023/11/13 04:37:26;;;;;;;20.43;5.93;;;12.00;99.90;;;;;;4974028;28;20222;-86
2023/11/13 04:39:54;;;;;;;18.40;5.03;;;12.10;99.90;;;;;;4977565;28;20350;-87
2023/11/13 04:42:20;;;;;;;20.43;5.27;;;12.10;99.90;;;;;;4974642;28;20213;-85
2023/11/13 04:44:47;;;;;;;21.80;5.57;;;12.00;99.90;;;;;;4977264;28;20271;-86
2023/11/13 04:47:13;;;;;;;21.97;4.93;;;12.10;99.90;;;;;;4977494;28;20187;-86
2023/11/13 04:49:39;;;;;;;23.00;5.47;;;12.10;99.90;;;;;;4969717;28;20184;-87
2023/11/13 04:52:06;;;;;;;22.43;5.20;;;12.10;99.90;;;;;;4949208;28;20227;-87
2023/11/13 04:54:32;;;;;;;26.77;5.70;;;12.10;99.90;;;;;;4963994;28;20182;-86
2023/11/13 04:56:59;;;;;;;19.97;5.00;;;12.00;99.90;;;;;;4963847;28;20191;-87
2023/11/13 04:59:25;;;;;;;23.10;5.87;;;12.10;99.90;;;;;;4968274;28;20182;-88
2023/11/13 05:01:53;;;;;;;22.40;5.47;;;12.10;99.90;;;;;;4970678;28;20242;-87
2023/11/13 05:04:18;;;;;;;22.07;5.20;;;12.10;99.90;;;;;;4967449;28;20183;-87
2023/11/13 05:06:44;;;;;;;19.17;5.50;;;12.10;99.90;;;;;;4966486;28;20244;-89
2023/11/13 05:09:11;;;;;;;19.97;5.37;;;12.10;99.90;;;;;;4963660;28;20194;-89
2023/11/13 05:11:37;;;;;;;24.23;6.33;;;12.10;99.90;;;;;;4962572;28;20225;-87
2023/11/13 05:14:03;;;;;;;24.50;6.73;;;12.10;99.90;;;;;;4962524;28;20188;-87
2023/11/13 05:16:29;;;;;;;21.03;6.10;;;12.30;99.90;;;;;;4961716;28;20211;-87
2023/11/13 05:18:56;;;;;;;22.40;6.87;;;12.50;99.90;;;;;;4963000;28;20996;-88
2023/11/13 05:21:21;;;;;;;25.53;7.60;;;12.30;99.90;;;;;;4962234;28;20191;-89
2023/11/13 05:23:50;;;;;;;27.57;7.83;;;12.30;99.90;;;;;;4969958;28;20599;-89
2023/11/13 05:26:17;;;;;;;26.07;7.33;;;12.20;99.90;;;;;;4956382;29;20294;-87
2023/11/13 05:28:45;;;;;;;28.23;8.33;;;12.10;99.90;;;;;;4943179;29;20188;-87
2023/11/13 05:31:10;;;;;;;23.80;7.67;;;12.10;99.90;;;;;;4955844;28;20220;-87
2023/11/13 05:33:38;;;;;;;22.37;7.47;;;12.10;99.90;;;;;;4955960;29;20207;-86
2023/11/13 05:36:10;;;;;;;19.03;7.13;;;12.10;99.90;;;;;;4942313;29;20238;-87
2023/11/13 05:38:36;;;;;;;20.87;7.50;;;12.00;99.90;;;;;;4947593;29;20199;-87
2023/11/13 05:41:01;;;;;;;24.57;7.23;;;11.90;99.90;;;;;;4949369;29;20211;-88
2023/11/13 05:43:28;;;;;;;17.40;5.70;;;11.90;99.90;;;;;;4943225;29;20255;-88
2023/11/13 05:45:55;;;;;;;17.43;5.10;;;11.80;99.90;;;;;;4943574;29;20643;-88
2023/11/13 05:48:21;;;;;;;16.30;4.93;;;11.80;99.90;;;;;;4955150;29;20655;-87
2023/11/13 05:50:48;;;;;;;16.83;4.27;;;11.70;99.90;;;;;;4942601;29;20674;-88
2023/11/13 05:53:14;;;;;;;15.33;4.30;;;11.60;99.90;;;;;;4942434;29;20278;-89
2023/11/13 05:55:40;;;;;;;14.10;4.10;;;11.40;99.90;;;;;;4942737;29;20196;-87
2023/11/13 05:58:06;;;;;;;12.67;4.07;;;11.60;99.90;;;;;;4943380;29;20208;-86
2023/11/13 06:00:32;;;;;;;15.97;4.13;;;11.50;99.90;;;;;;4944077;29;20186;-89
2023/11/13 06:02:58;;;;;;;12.00;3.23;;;11.50;99.90;;;;;;4943420;29;20188;-89
2023/11/13 06:05:23;;;;;;;15.50;3.67;;;11.40;99.90;;;;;;4941653;29;20199;-88
2023/11/13 06:07:49;;;;;;;9.77;3.23;;;11.40;99.90;;;;;;4942579;29;20236;-89
2023/11/13 06:10:17;;;;;;;9.63;2.97;;;11.40;99.90;;;;;;4941889;29;20563;-89
2023/11/13 06:12:43;;;;;;;10.93;3.37;;;11.40;99.90;;;;;;4941874;29;20217;-90
2023/11/13 06:15:16;;;;;;;11.60;3.23;;;11.40;99.90;;;;;;4941044;29;20677;-88
2023/11/13 06:17:44;;;;;;;11.27;2.80;;;11.40;99.90;;;;;;4949106;28;20257;-88
2023/11/13 06:20:15;;;;;;;7.40;2.77;;;11.50;99.90;;;;;;4964960;28;20192;-87
2023/11/13 06:22:41;;;;;;;11.07;2.87;;;11.50;99.90;;;;;;4977851;28;20180;-89
2023/11/13 06:25:09;;;;;;;10.90;2.43;;;11.50;99.90;;;;;;4960693;28;20556;-88
2023/11/13 06:27:35;;;;;;;9.93;3.20;;;11.40;99.90;;;;;;4959758;28;20218;-89
2023/11/13 06:30:01;;;;;;;9.87;2.87;;;11.50;99.90;;;;;;4978308;28;20172;-88
2023/11/13 06:32:29;;;;;;;7.17;2.40;;;11.50;99.90;;;;;;4965022;28;20221;-87
2023/11/13 06:34:56;;;;;;;9.77;2.97;;;11.50;99.90;;;;;;4983067;28;20215;-87
2023/11/13 06:37:22;;;;;;;8.20;2.67;;;11.50;99.90;;;;;;4982443;28;20209;-88
2023/11/13 06:39:51;;;;;;;8.60;3.27;;;11.50;99.90;;;;;;4972649;28;20218;-89
2023/11/13 06:43:08;;;;;;;8.13;2.70;;;11.50;99.90;;;;;;4971132;28;20207;-88
2023/11/13 06:45:35;;;;;;;10.40;3.80;;;11.60;99.90;;;;;;4973735;28;20187;-89
2023/11/13 06:48:02;;;;;;;10.00;3.00;;;11.80;99.90;;;;;;4973304;28;20189;-87
2023/11/13 06:50:32;;;;;;;10.77;4.17;;;11.90;99.90;;;;;;4958453;28;20211;-90
2023/11/13 06:52:58;;;;;;;7.40;2.70;;;12.00;99.90;;;;;;4971750;28;20259;-88
2023/11/13 06:55:24;;;;;;;12.80;3.93;;;12.00;99.90;;;;;;4988495;28;20196;-88
2023/11/13 06:57:49;;;;;;;6.97;3.10;;;12.00;99.90;;;;;;4975006;28;20185;-89
2023/11/13 07:00:16;;;;;;;11.70;3.67;;;12.20;99.90;;;;;;4981527;28;20242;-88
2023/11/13 07:02:47;;;;;;;8.90;3.17;;;12.20;99.90;;;;;;4995631;28;20222;-87
2023/11/13 07:05:15;;;;;;;10.40;2.53;;;12.20;99.90;;;;;;4974618;28;20189;-88
2023/11/13 07:07:44;;;;;;;9.30;3.47;;;12.20;99.90;;;;;;4965181;28;20627;-86
2023/11/13 07:10:13;;;;;;;5.93;2.30;;;12.20;99.90;;;;;;4967551;28;20243;-84
2023/11/13 07:12:42;;;;;;;9.20;2.63;;;12.30;99.90;;;;;;4967183;28;20314;-88
2023/11/13 07:15:11;;;;;;;7.10;2.23;;;12.30;99.90;;;;;;4978690;28;20262;-88
2023/11/13 07:17:37;;;;;;;6.37;2.30;;;12.40;99.90;;;;;;4961348;28;20247;-87
2023/11/13 07:20:06;;;;;;;6.63;2.40;;;12.30;99.90;;;;;;4963982;28;20195;-89
2023/11/13 07:22:32;;;;;;;8.00;2.47;;;12.30;99.90;;;;;;4960560;28;20188;-88
2023/11/13 07:24:58;;;;;;;7.43;2.27;;;12.20;99.90;;;;;;4960880;28;20593;-88
2023/11/13 07:27:24;;;;;;;8.90;2.60;;;12.30;99.90;;;;;;4960376;28;20194;-88
2023/11/13 07:29:50;;;;;;;9.27;2.80;;;12.30;99.90;;;;;;4945003;28;20195;-87
2023/11/13 07:32:16;;;;;;;7.87;3.00;;;12.30;99.90;;;;;;4965263;28;20350;-89
2023/11/13 07:34:42;;;;;;;6.87;2.10;;;12.30;99.90;;;;;;4973188;28;20219;-88
2023/11/13 07:37:08;;;;;;;4.97;2.10;;;12.30;99.90;;;;;;4976294;28;20180;-89
2023/11/13 07:39:34;;;;;;;8.03;2.33;;;12.10;99.90;;;;;;4963494;28;20210;-87
2023/11/13 07:42:00;;;;;;;5.13;1.90;;;12.00;99.90;;;;;;4961226;28;20191;-89
2023/11/13 07:44:25;;;;;;;8.23;2.60;;;12.10;99.90;;;;;;4961860;28;20189;-89
2023/11/13 07:46:52;;;;;;;6.40;2.30;;;12.00;99.90;;;;;;4961236;28;20188;-88
2023/11/13 07:49:18;;;;;;;6.97;2.33;;;12.00;99.90;;;;;;4962156;28;20230;-87
2023/11/13 07:51:45;;;;;;;8.23;2.77;;;12.00;99.90;;;;;;4960827;28;20207;-89
2023/11/13 07:54:11;;;;;;;7.17;2.30;;;12.00;99.90;;;;;;4961685;28;20180;-90
2023/11/13 07:56:38;;;;;;;7.00;2.17;;;12.00;99.90;;;;;;4960226;28;20649;-90
2023/11/13 07:59:11;;;;;;;8.30;2.77;;;12.00;99.90;;;;;;4960019;28;20205;-91
2023/11/13 08:01:37;;;;;;;8.33;2.57;;;12.00;99.90;;;;;;4960912;28;20192;-88
2023/11/13 08:04:07;;;;;;;7.57;2.50;;;12.00;99.90;;;;;;4959677;28;20187;-88
2023/11/13 08:06:33;;;;;;;8.07;2.80;;;12.00;99.90;;;;;;4959732;28;20637;-89
2023/11/13 08:09:00;;;;;;;10.70;2.87;;;12.00;99.90;;;;;;4957681;28;20274;-88
2023/11/13 08:11:30;;;;;;;7.13;2.60;;;12.00;99.90;;;;;;4954005;29;20225;-88
2023/11/13 08:13:56;;;;;;;7.13;2.90;;;12.00;99.90;;;;;;4944817;29;20195;-88
2023/11/13 08:16:22;;;;;;;8.67;2.73;;;11.90;99.90;;;;;;4941464;29;20196;-89
2023/11/13 08:18:48;;;;;;;9.47;3.40;;;12.00;99.90;;;;;;4941475;29;20185;-88
2023/11/13 08:21:17;;;;;;;6.53;2.90;;;12.10;99.90;;;;;;4940612;29;20192;-89
2023/11/13 08:23:42;;;;;;;12.90;3.77;;;12.20;99.90;;;;;;4951997;29;20213;-90
2023/11/13 08:26:08;;;;;;;10.87;3.23;;;12.30;99.90;;;;;;4939940;29;20184;-88
2023/11/13 08:28:35;;;;;;;10.23;3.80;;;12.30;99.90;;;;;;4940439;29;20251;-88
2023/11/13 08:31:03;;;;;;;12.80;4.20;;;12.40;99.90;;;;;;4958031;29;20172;-88
2023/11/13 08:33:29;;;;;;;13.33;4.10;;;12.50;99.90;;;;;;4943942;29;20188;-87
2023/11/13 08:35:54;;;;;;;13.43;3.77;;;12.60;99.90;;;;;;4956251;29;20190;-88
2023/11/13 08:38:20;;;;;;;10.83;3.50;;;12.70;99.90;;;;;;4949523;29;20197;-89
2023/11/13 08:40:50;;;;;;;11.43;3.90;;;12.70;99.90;;;;;;4943453;29;20193;-87
2023/11/13 08:43:16;;;;;;;12.10;3.97;;;12.70;99.90;;;;;;4944118;29;20205;-89
2023/11/13 08:45:44;;;;;;;14.37;4.33;;;12.90;99.90;;;;;;4942007;29;20188;-88
2023/11/13 08:48:10;;;;;;;10.83;4.00;;;12.90;99.90;;;;;;4940914;29;20188;-88
2023/11/13 08:50:37;;;;;;;17.67;4.73;;;13.00;99.90;;;;;;4940899;29;20275;-90
2023/11/13 08:53:05;;;;;;;14.37;4.80;;;13.20;99.90;;;;;;4941295;29;20235;-89
2023/11/13 08:55:30;;;;;;;12.77;3.93;;;13.10;99.90;;;;;;4940250;29;20600;-88
2023/11/13 08:57:57;;;;;;;13.53;4.60;;;13.10;99.90;;;;;;4941354;29;20197;-91
2023/11/13 09:00:24;;;;;;;15.50;4.87;;;13.10;99.90;;;;;;4941398;29;20186;-91
2023/11/13 09:02:59;;;;;;;11.60;4.17;;;13.20;99.90;;;;;;4942801;29;20220;-92
2023/11/13 09:05:26;;;;;;;13.50;4.47;;;13.30;99.90;;;;;;4940927;29;20212;-90
2023/11/13 09:07:58;;;;;;;15.23;5.17;;;13.30;99.90;;;;;;4942593;29;20198;-92
2023/11/13 09:10:27;;;;;;;19.63;4.87;;;13.40;99.90;;;;;;4941147;29;20191;-93
2023/11/13 09:12:59;;;;;;;15.00;4.50;;;13.50;99.90;;;;;;4942494;29;20224;-90
2023/11/13 09:15:27;;;;;;;18.33;5.00;;;13.50;99.90;;;;;;4961587;28;20244;-91
2023/11/13 09:18:01;;;;;;;16.40;5.00;;;13.50;99.90;;;;;;4953985;29;20627;-91
2023/11/13 09:20:29;;;;;;;16.13;4.83;;;13.60;99.90;;;;;;4943717;29;20625;-91
2023/11/13 09:22:55;;;;;;;16.03;5.33;;;13.60;99.90;;;;;;4943415;29;20192;-91
2023/11/13 09:25:22;;;;;;;13.50;4.80;;;13.70;99.90;;;;;;4945046;29;20173;-91
2023/11/13 09:27:50;;;;;;;16.23;5.10;;;13.80;99.90;;;;;;4947640;29;20199;-90
2023/11/13 09:30:20;;;;;;;15.40;4.53;;;13.80;99.90;;;;;;4947379;29;20188;-92
2023/11/13 09:32:51;;;;;;;19.93;5.83;;;13.80;99.90;;;;;;4957245;28;20212;-89
2023/11/13 09:35:21;;;;;;;21.13;5.60;;;14.00;99.90;;;;;;4976806;28;20172;-88
2023/11/13 09:37:54;;;;;;;20.83;6.23;;;14.00;99.90;;;;;;4984856;28;20175;-91
2023/11/13 09:40:34;;;;;;;20.03;5.57;;;14.10;99.90;;;;;;4984856;28;20191;-91
2023/11/13 09:43:14;;;;;;;12.57;4.80;;;14.10;99.90;;;;;;4984423;28;20174;-91
2023/11/13 09:45:51;;;;;;;15.57;5.37;;;14.20;99.90;;;;;;4981160;28;20175;-90
2023/11/13 09:48:19;;;;;;;18.67;5.47;;;14.30;99.90;;;;;;4974815;28;20175;-91
2023/11/13 09:50:48;;;;;;;15.43;5.00;;;14.30;99.90;;;;;;4973887;28;20189;-91
2023/11/13 09:53:23;;;;;;;23.37;5.63;;;14.30;99.90;;;;;;4967240;28;20247;-91
2023/11/13 09:55:50;;;;;;;17.10;5.93;;;14.30;99.90;;;;;;4966580;28;20195;-89
2023/11/13 09:58:19;;;;;;;18.57;5.53;;;14.30;99.90;;;;;;4963890;28;20191;-90
2023/11/13 10:00:45;;;;;;;17.63;5.70;;;14.40;99.90;;;;;;4974019;28;20211;-91
2023/11/13 10:03:16;;;;;;;14.60;5.00;;;14.40;99.90;;;;;;4978369;28;20268;-92
2023/11/13 10:05:43;;;;;;;12.63;4.50;;;14.40;99.90;;;;;;4962805;28;20219;-92
2023/11/13 10:08:09;;;;;;;16.83;5.67;;;14.50;99.90;;;;;;4976343;28;20177;-92
2023/11/13 10:10:39;;;;;;;19.53;6.07;;;14.60;99.90;;;;;;4984512;28;20203;-89
2023/11/13 10:13:09;;;;;;;14.83;5.07;;;14.60;99.90;;;;;;4984151;28;20199;-89
2023/11/13 10:15:36;;;;;;;14.53;5.30;;;14.60;99.90;;;;;;4998976;28;20184;-92
2023/11/13 10:18:36;;;;;;;16.83;5.23;;;14.60;99.90;;;;;;4963339;28;20193;-92
2023/11/13 10:21:05;;;;;;;15.97;5.73;;;14.60;99.90;;;;;;4964035;28;20189;-92
2023/11/13 10:23:37;;;;;;;15.57;4.80;;;14.70;99.90;;;;;;4962214;28;20667;-92
2023/11/13 10:26:04;;;;;;;17.20;5.53;;;14.80;99.90;;;;;;4963226;28;20204;-91
2023/11/13 10:28:40;;;;;;;15.70;5.30;;;14.80;99.90;;;;;;4965689;28;20205;-91
2023/11/13 10:31:15;;;;;;;19.77;5.77;;;14.70;99.90;;;;;;4963050;28;20194;-92
2023/11/13 10:33:40;;;;;;;17.33;5.70;;;14.90;99.90;;;;;;4967328;28;20216;-91
2023/11/13 10:36:17;;;;;;;16.43;4.80;;;14.90;99.90;;;;;;4975078;28;20199;-92
2023/11/13 10:38:47;;;;;;;13.90;4.60;;;14.90;99.90;;;;;;4963823;28;20185;-90
2023/11/13 10:41:21;;;;;;;13.87;4.80;;;15.00;99.90;;;;;;4977430;28;20204;-89
2023/11/13 10:43:49;;;;;;;11.93;4.20;;;14.90;99.90;;;;;;4974341;28;20188;-89
2023/11/13 10:46:33;;;;;;;15.07;5.03;;;14.90;99.90;;;;;;4962958;28;20192;-91
2023/11/13 10:48:59;;;;;;;14.70;5.50;;;14.90;99.90;;;;;;4974613;28;20191;-91
2023/11/13 10:51:27;;;;;;;11.30;4.47;;;14.90;99.90;;;;;;4971375;28;20204;-91
2023/11/13 10:53:56;;;;;;;11.97;4.30;;;15.00;99.90;;;;;;4963928;28;20181;-92
2023/11/13 10:56:25;;;;;;;10.93;4.33;;;15.00;99.90;;;;;;4961348;28;20263;-92
2023/11/13 10:58:53;;;;;;;11.50;5.03;;;15.00;99.90;;;;;;4961840;28;20654;-92
2023/11/13 11:01:23;;;;;;;12.47;5.53;;;15.00;99.90;;;;;;4962966;28;20200;-91
2023/11/13 11:03:52;;;;;;;13.07;4.83;;;15.00;99.90;;;;;;4963842;28;20213;-93
2023/11/13 11:06:22;;;;;;;13.50;4.90;;;15.00;99.90;;;;;;4963368;28;20670;-93
2023/11/13 11:08:53;;;;;;;13.83;4.97;;;15.00;99.90;;;;;;4962868;28;20185;-91
2023/11/13 11:11:24;;;;;;;12.67;4.97;;;15.10;99.90;;;;;;4963051;28;20217;-91
2023/11/13 11:13:59;;;;;;;12.20;4.83;;;15.10;99.90;;;;;;4979409;28;20192;-90
2023/11/13 11:16:32;;;;;;;12.00;4.83;;;15.10;99.90;;;;;;4962214;28;20198;-94
2023/11/13 11:19:18;;;;;;;11.63;4.43;;;15.10;99.90;;;;;;4961324;28;20186;-93
2023/11/13 11:22:08;;;;;;;9.20;4.10;;;15.10;99.90;;;;;;4961513;28;20639;-93
2023/11/13 11:24:49;;;;;;;14.40;4.70;;;15.10;99.90;;;;;;4963016;28;20759;-93
2023/11/13 11:27:40;;;;;;;12.77;4.47;;;15.20;99.90;;;;;;4972911;28;20197;-91
2023/11/13 11:30:22;;;;;;;11.90;4.23;;;15.20;99.90;;;;;;4962602;28;20195;-92
2023/11/13 11:33:00;;;;;;;12.47;4.10;;;15.30;99.90;;;;;;4967312;28;20233;-90
2023/11/13 11:35:29;;;;;;;12.43;4.20;;;15.30;99.90;;;;;;4955642;28;20277;-92
2023/11/13 11:38:28;;;;;;;11.10;4.63;;;15.40;99.90;;;;;;4965093;28;20242;-93
2023/11/13 11:41:00;;;;;;;8.93;3.50;;;15.40;99.90;;;;;;4962804;28;20188;-92
2023/11/13 11:43:35;;;;;;;9.83;4.23;;;15.30;99.90;;;;;;4973745;28;20255;-91
2023/11/13 11:46:03;;;;;;;9.43;3.53;;;15.30;99.90;;;;;;4981280;28;20192;-92
2023/11/13 11:48:31;;;;;;;8.40;3.70;;;15.40;99.90;;;;;;4978961;28;20225;-92
2023/11/13 11:51:11;;;;;;;8.27;3.20;;;15.30;99.90;;;;;;4972239;28;20188;-93
2023/11/13 11:53:56;;;;;;;7.80;3.13;;;15.20;99.90;;;;;;4961475;28;20572;-94
2023/11/13 11:56:23;;;;;;;11.10;3.50;;;15.50;99.90;;;;;;4961312;28;20214;-91
2023/11/13 11:58:52;;;;;;;8.27;3.30;;;15.40;99.90;;;;;;4979693;28;20235;-92
2023/11/13 12:01:22;;;;;;;8.07;3.30;;;15.40;99.90;;;;;;4962310;28;20215;-92
2023/11/13 12:03:48;;;;;;;8.37;3.10;;;15.50;99.90;;;;;;4962379;28;20185;-92
2023/11/13 12:06:16;;;;;;;8.03;2.63;;;15.50;99.90;;;;;;4965177;28;20204;-92
2023/11/13 12:08:41;;;;;;;6.20;2.90;;;15.60;99.90;;;;;;4961221;28;20195;-91
2023/11/13 12:11:11;;;;;;;7.23;2.70;;;15.60;99.90;;;;;;4960792;28;20193;-93
2023/11/13 12:13:39;;;;;;;10.07;2.70;;;15.60;99.90;;;;;;4961462;28;20180;-90
2023/11/13 12:16:05;;;;;;;9.77;3.60;;;15.60;99.90;;;;;;4963025;28;20195;-93
2023/11/13 12:18:32;;;;;;;7.40;3.20;;;15.50;99.90;;;;;;4978877;28;20186;-90
2023/11/13 12:20:57;;;;;;;8.20;2.77;;;15.50;99.90;;;;;;4962780;28;20195;-93
2023/11/13 12:23:23;;;;;;;7.80;2.73;;;15.50;99.90;;;;;;4961890;28;20809;-93
2023/11/13 12:25:49;;;;;;;8.60;2.90;;;15.50;99.90;;;;;;4962636;28;20190;-93
2023/11/13 12:28:16;;;;;;;6.83;2.50;;;15.40;99.90;;;;;;4947718;28;20670;-92
2023/11/13 12:30:43;;;;;;;5.70;2.20;;;15.50;99.90;;;;;;4970885;28;20184;-90
2023/11/13 12:33:09;;;;;;;5.50;2.60;;;15.50;99.90;;;;;;4978600;28;20250;-91
2023/11/13 12:35:37;;;;;;;5.13;2.33;;;15.50;99.90;;;;;;4980922;28;20234;-91
2023/11/13 12:38:04;;;;;;;6.27;2.07;;;15.60;99.90;;;;;;4997992;28;20244;-90
2023/11/13 12:40:30;;;;;;;5.07;2.50;;;15.70;99.90;;;;;;4972162;29;20220;-92
2023/11/13 12:43:11;;;;;;;5.33;2.00;;;15.60;99.90;;;;;;4954570;29;20459;-91
2023/11/13 12:45:38;;;;;;;3.83;1.70;;;15.70;99.90;;;;;;4948220;29;20267;-91